createdAt,value
2022-08-07T00:00:40.170Z,1.53
2022-08-07T00:03:09.336Z,1.47
2022-08-07T00:05:37.926Z,2.03
2022-08-07T00:08:07.886Z,1.80
2022-08-07T00:10:47.694Z,1.83
2022-08-07T00:13:25.795Z,1.67
2022-08-07T00:15:55.077Z,1.77
2022-08-07T00:18:25.124Z,1.67
2022-08-07T00:20:55.061Z,1.30
2022-08-07T00:23:28.432Z,1.80
2022-08-07T00:26:12.802Z,1.40
2022-08-07T00:28:46.120Z,1.77
2022-08-07T00:31:37.382Z,1.40
2022-08-07T00:34:08.644Z,2.13
2022-08-07T00:36:38.530Z,1.57
2022-08-07T00:39:16.730Z,1.97
2022-08-07T00:41:53.854Z,1.70
2022-08-07T00:44:30.768Z,1.50
2022-08-07T00:47:01.549Z,1.43
2022-08-07T00:50:19.371Z,2.10
2022-08-07T00:52:20.019Z,1.10
2022-08-07T00:54:53.645Z,1.97
2022-08-07T00:57:25.191Z,1.50
2022-08-07T00:59:54.466Z,1.23
2022-08-07T01:02:28.309Z,1.70
2022-08-07T01:04:59.205Z,2.73
2022-08-07T01:07:31.220Z,1.90
2022-08-07T01:10:07.152Z,1.70
2022-08-07T01:12:54.050Z,2.20
2022-08-07T01:15:35.746Z,1.80
2022-08-07T01:18:16.976Z,2.40
2022-08-07T01:20:57.533Z,2.30
2022-08-07T01:23:38.529Z,1.40
2022-08-07T01:26:11.888Z,2.03
2022-08-07T01:28:41.301Z,1.90
2022-08-07T01:31:15.247Z,1.87
2022-08-07T01:33:55.119Z,2.17
2022-08-07T01:36:33.564Z,2.43
2022-08-07T01:39:09.534Z,2.20
2022-08-07T01:41:39.119Z,1.80
2022-08-07T01:44:23.125Z,1.50
2022-08-07T01:46:52.521Z,1.33
2022-08-07T01:49:21.449Z,2.10
2022-08-07T01:52:02.542Z,1.60
2022-08-07T01:54:37.694Z,1.67
2022-08-07T01:57:24.300Z,1.50
2022-08-07T01:59:57.162Z,1.50
2022-08-07T02:03:05.671Z,1.70
2022-08-07T02:05:48.295Z,1.90
2022-08-07T02:08:15.608Z,1.70
2022-08-07T02:10:54.864Z,1.60
2022-08-07T02:13:56.571Z,1.80
2022-08-07T02:16:13.428Z,1.67
2022-08-07T02:18:47.306Z,2.07
2022-08-07T02:21:17.632Z,1.90
2022-08-07T02:23:47.667Z,2.17
2022-08-07T02:26:34.079Z,1.53
2022-08-07T02:29:05.901Z,2.03
2022-08-07T02:31:42.114Z,1.73
2022-08-07T02:34:16.194Z,1.43
2022-08-07T02:36:46.360Z,1.60
2022-08-07T02:39:16.584Z,1.90
2022-08-07T02:42:10.009Z,3.20
2022-08-07T02:44:48.052Z,2.00
2022-08-07T02:47:19.676Z,1.70
2022-08-07T02:49:57.466Z,1.67
2022-08-07T02:52:33.381Z,1.60
2022-08-07T02:55:05.657Z,2.03
2022-08-07T02:57:58.973Z,1.53
2022-08-07T03:00:30.459Z,1.60
2022-08-07T03:02:59.515Z,2.93
2022-08-07T03:05:35.732Z,2.73
2022-08-07T03:08:10.295Z,2.20
2022-08-07T03:10:40.993Z,2.27
2022-08-07T03:13:19.682Z,1.90
2022-08-07T03:15:56.163Z,2.37
2022-08-07T03:18:34.204Z,2.00
2022-08-07T03:21:04.203Z,1.70
2022-08-07T03:24:20.229Z,1.67
2022-08-07T03:26:25.876Z,1.80
2022-08-07T03:28:56.739Z,2.13
2022-08-07T03:31:42.670Z,2.27
2022-08-07T03:34:18.324Z,1.67
2022-08-07T03:36:48.711Z,1.50
2022-08-07T03:40:00.070Z,1.63
2022-08-07T03:42:08.035Z,1.87
2022-08-07T03:44:39.811Z,2.40
2022-08-07T03:47:13.559Z,1.87
2022-08-07T03:49:48.057Z,1.80
2022-08-07T03:52:26.682Z,1.40
2022-08-07T03:54:58.973Z,2.03
2022-08-07T03:58:34.250Z,2.10
2022-08-07T04:00:33.217Z,2.03
2022-08-07T04:03:04.099Z,1.97
2022-08-07T04:05:40.363Z,2.10
2022-08-07T04:08:12.337Z,2.00
2022-08-07T04:10:42.381Z,2.53
2022-08-07T04:13:15.301Z,1.73
2022-08-07T04:15:45.779Z,2.10
2022-08-07T04:18:56.603Z,1.90
2022-08-07T04:21:07.309Z,1.70
2022-08-07T04:23:43.335Z,2.30
2022-08-07T04:26:28.416Z,2.70
2022-08-07T04:28:56.873Z,2.20
2022-08-07T04:31:38.880Z,1.80
2022-08-07T04:34:17.349Z,2.20
2022-08-07T04:36:55.776Z,2.30
2022-08-07T04:39:25.960Z,2.60
2022-08-07T04:41:54.669Z,2.23
2022-08-07T04:44:22.857Z,2.53
2022-08-07T04:47:07.823Z,1.80
2022-08-07T04:49:57.950Z,2.13
2022-08-07T04:52:50.892Z,1.63
2022-08-07T04:58:13.257Z,1.97
2022-08-07T04:58:34.830Z,1.70
2022-08-07T05:01:15.841Z,1.50
2022-08-07T05:04:07.764Z,1.50
2022-08-07T05:06:43.558Z,1.60
2022-08-07T05:09:28.064Z,1.90
2022-08-07T05:12:13.349Z,2.30
2022-08-07T05:14:55.624Z,1.53
2022-08-07T05:17:51.568Z,1.90
2022-08-07T05:20:24.933Z,2.10
2022-08-07T05:22:59.106Z,2.00
2022-08-07T05:26:10.339Z,2.03
2022-08-07T05:28:22.613Z,1.63
2022-08-07T05:30:53.198Z,1.40
2022-08-07T05:33:22.452Z,2.00
2022-08-07T05:35:52.985Z,2.50
2022-08-07T05:39:01.141Z,2.00
2022-08-07T05:41:15.686Z,1.80
2022-08-07T05:44:07.903Z,2.10
2022-08-07T05:46:37.579Z,2.10
2022-08-07T05:49:11.975Z,2.50
2022-08-07T05:51:43.359Z,2.63
2022-08-07T05:54:30.959Z,1.50
2022-08-07T05:57:04.150Z,1.80
2022-08-07T05:59:38.984Z,1.63
2022-08-07T06:02:29.227Z,1.80
2022-08-07T06:05:03.541Z,1.97
2022-08-07T06:08:12.942Z,2.00
2022-08-07T06:10:23.472Z,1.93
2022-08-07T06:12:51.879Z,2.13
2022-08-07T06:15:21.103Z,1.87
2022-08-07T06:17:53.926Z,2.10
2022-08-07T06:20:31.941Z,1.90
2022-08-07T06:23:46.174Z,2.23
2022-08-07T06:25:57.913Z,2.40
2022-08-07T06:28:28.096Z,2.67
2022-08-07T06:30:58.140Z,2.63
2022-08-07T06:33:27.245Z,3.13
2022-08-07T06:36:12.815Z,3.33
2022-08-07T06:38:58.688Z,4.10
2022-08-07T06:42:01.138Z,3.10
2022-08-07T06:44:25.711Z,3.43
2022-08-07T06:47:10.389Z,3.83
2022-08-07T06:49:51.625Z,3.43
2022-08-07T06:52:31.765Z,3.60
2022-08-07T06:55:32.877Z,3.47
2022-08-07T06:58:00.727Z,3.50
2022-08-07T07:00:32.453Z,3.00
2022-08-07T07:03:08.722Z,3.80
2022-08-07T07:06:05.608Z,3.97
2022-08-07T07:08:33.360Z,3.00
2022-08-07T07:11:12.987Z,2.50
2022-08-07T07:13:58.238Z,3.47
2022-08-07T07:16:45.075Z,2.73
2022-08-07T07:19:57.031Z,2.77
2022-08-07T07:22:33.755Z,3.10
2022-08-07T07:25:02.746Z,2.77
2022-08-07T07:27:55.650Z,2.53
2022-08-07T07:30:38.008Z,2.50
2022-08-07T07:33:08.923Z,3.30
2022-08-07T07:35:54.137Z,1.93
2022-08-07T07:38:34.718Z,2.37
2022-08-07T07:41:05.383Z,2.80
2022-08-07T07:44:14.000Z,2.70
2022-08-07T07:46:36.665Z,2.47
2022-08-07T07:50:33.454Z,2.80
2022-08-07T07:52:12.827Z,2.70
2022-08-07T07:54:44.181Z,1.80
2022-08-07T07:57:52.222Z,2.37
2022-08-07T08:00:20.805Z,2.70
2022-08-07T08:03:01.033Z,2.30
2022-08-07T08:05:50.931Z,2.70
2022-08-07T08:08:36.104Z,2.10
2022-08-07T08:11:08.378Z,2.20
2022-08-07T08:13:55.027Z,1.60
2022-08-07T08:18:36.432Z,2.17
2022-08-07T08:20:18.632Z,1.57
2022-08-07T08:22:32.902Z,1.43
2022-08-07T08:25:42.271Z,1.67
2022-08-07T08:28:16.794Z,1.90
2022-08-07T08:30:55.788Z,1.50
2022-08-07T08:33:32.925Z,2.20
2022-08-07T08:36:02.627Z,1.70
2022-08-07T08:38:40.501Z,1.77
2022-08-07T08:41:15.668Z,1.80
2022-08-07T08:43:59.153Z,1.67
2022-08-07T08:46:38.474Z,1.60
2022-08-07T08:49:16.324Z,1.40
2022-08-07T08:52:13.255Z,1.63
2022-08-07T08:54:48.515Z,1.53
2022-08-07T08:57:26.692Z,1.90
2022-08-07T09:00:03.206Z,1.27
2022-08-07T09:02:39.480Z,1.30
2022-08-07T09:05:37.680Z,1.60
2022-08-07T09:08:28.773Z,1.00
2022-08-07T09:11:05.588Z,1.07
2022-08-07T09:13:42.096Z,1.33
2022-08-07T09:16:30.045Z,1.40
2022-08-07T09:19:51.837Z,1.20
2022-08-07T09:24:31.729Z,1.20
2022-08-07T09:25:24.335Z,1.00
2022-08-07T09:28:01.205Z,1.03
2022-08-07T09:30:38.369Z,1.40
2022-08-07T09:33:41.258Z,1.40
2022-08-07T09:36:16.844Z,1.37
2022-08-07T09:38:55.094Z,1.20
2022-08-07T09:41:36.192Z,2.20
2022-08-07T09:44:33.049Z,1.77
2022-08-07T09:47:51.767Z,1.47
2022-08-07T09:50:21.083Z,1.20
2022-08-07T09:52:53.928Z,1.20
2022-08-07T09:55:29.425Z,1.03
2022-08-07T09:58:48.796Z,1.30
2022-08-07T10:01:53.511Z,1.60
2022-08-07T10:05:01.196Z,1.40
2022-08-07T10:07:59.657Z,1.10
2022-08-07T10:11:16.473Z,1.40
2022-08-07T10:14:00.199Z,1.57
2022-08-07T10:16:56.261Z,0.90
2022-08-07T10:19:48.521Z,1.30
2022-08-07T10:22:36.699Z,1.20
2022-08-07T10:25:22.838Z,1.10
2022-08-07T10:28:23.486Z,1.03
2022-08-07T10:31:11.279Z,1.13
2022-08-07T10:34:05.867Z,0.80
2022-08-07T10:37:05.487Z,0.90
2022-08-07T10:40:03.482Z,0.90
2022-08-07T10:42:41.166Z,1.57
2022-08-07T10:45:44.997Z,1.13
2022-08-07T10:48:35.153Z,0.93
2022-08-07T10:51:16.867Z,1.30
2022-08-07T10:54:09.366Z,1.00
2022-08-07T10:56:47.411Z,1.20
2022-08-07T10:59:30.471Z,0.90
2022-08-07T11:02:12.273Z,1.03
2022-08-07T11:05:10.216Z,0.87
2022-08-07T11:07:58.784Z,1.10
2022-08-07T11:10:37.344Z,0.83
2022-08-07T11:14:41.994Z,0.93
2022-08-07T11:16:07.134Z,0.83
2022-08-07T11:18:43.791Z,0.77
2022-08-07T11:21:27.525Z,1.27
2022-08-07T11:24:08.462Z,1.37
2022-08-07T11:26:43.417Z,0.90
2022-08-07T11:29:42.795Z,0.90
2022-08-07T11:32:25.848Z,1.20
2022-08-07T11:34:59.504Z,0.90
2022-08-07T11:38:10.129Z,1.23
2022-08-07T11:40:49.835Z,0.90
2022-08-07T11:43:41.213Z,0.90
2022-08-07T11:46:24.027Z,0.77
2022-08-07T11:49:51.444Z,1.10
2022-08-07T11:52:14.782Z,0.90
2022-08-07T11:55:01.499Z,0.90
2022-08-07T11:57:59.444Z,1.13
2022-08-07T12:00:34.114Z,1.00
2022-08-07T12:03:44.305Z,0.93
2022-08-07T12:06:37.923Z,0.70
2022-08-07T12:09:16.680Z,0.80
2022-08-07T12:12:09.066Z,0.90
2022-08-07T12:14:53.797Z,1.37
2022-08-07T12:17:33.464Z,0.73
2022-08-07T12:20:18.497Z,1.00
2022-08-07T12:23:09.095Z,0.97
2022-08-07T12:26:05.724Z,0.97
2022-08-07T12:28:53.872Z,1.00
2022-08-07T12:31:53.228Z,1.10
2022-08-07T12:34:19.400Z,1.40
2022-08-07T12:36:49.511Z,0.90
2022-08-07T12:39:44.363Z,1.10
2022-08-07T12:42:13.299Z,0.80
2022-08-07T12:44:45.106Z,1.10
2022-08-07T12:47:30.482Z,1.37
2022-08-07T12:50:05.203Z,0.90
2022-08-07T12:52:58.598Z,0.67
2022-08-07T12:55:41.075Z,1.10
2022-08-07T12:58:15.032Z,1.13
2022-08-07T13:00:54.259Z,1.00
2022-08-07T13:03:56.042Z,1.17
2022-08-07T13:07:02.197Z,0.93
2022-08-07T13:10:19.372Z,1.20
2022-08-07T13:12:56.138Z,1.00
2022-08-07T13:15:38.112Z,1.07
2022-08-07T13:18:26.423Z,1.00
2022-08-07T13:21:03.722Z,1.17
2022-08-07T13:24:00.767Z,1.00
2022-08-07T13:26:34.945Z,1.07
2022-08-07T13:29:11.815Z,0.70
2022-08-07T13:31:57.213Z,0.97
2022-08-07T13:34:36.487Z,1.00
2022-08-07T13:37:10.893Z,1.00
2022-08-07T13:40:36.578Z,1.10
2022-08-07T13:42:48.038Z,0.90
2022-08-07T13:46:11.455Z,1.00
2022-08-07T13:48:27.911Z,1.00
2022-08-07T13:51:01.954Z,0.80
2022-08-07T13:54:00.489Z,0.80
2022-08-07T13:56:36.149Z,1.00
2022-08-07T13:59:13.401Z,0.77
2022-08-07T14:01:51.363Z,0.90
2022-08-07T14:04:49.687Z,0.73
2022-08-07T14:07:23.061Z,0.80
2022-08-07T14:10:01.325Z,1.07
2022-08-07T14:12:41.857Z,0.83
2022-08-07T14:15:27.629Z,0.70
2022-08-07T14:18:15.859Z,0.90
2022-08-07T14:21:07.096Z,0.90
2022-08-07T14:24:01.131Z,0.90
2022-08-07T14:26:35.053Z,1.03
2022-08-07T14:30:05.196Z,0.80
2022-08-07T14:32:01.142Z,1.00
2022-08-07T14:34:32.126Z,0.80
2022-08-07T14:37:04.583Z,0.70
2022-08-07T14:40:17.991Z,0.80
2022-08-07T14:42:31.422Z,0.70
2022-08-07T14:45:21.212Z,1.00
2022-08-07T14:47:58.503Z,0.67
2022-08-07T14:54:05.513Z,0.77
2022-08-07T14:56:13.210Z,0.90
2022-08-07T14:58:50.008Z,0.90
2022-08-07T15:01:26.841Z,0.80
2022-08-07T15:04:12.591Z,0.83
2022-08-07T15:06:47.864Z,0.80
2022-08-07T15:09:57.263Z,0.70
2022-08-07T15:12:26.058Z,1.20
2022-08-07T15:17:55.894Z,0.90
2022-08-07T15:20:33.927Z,1.03
2022-08-07T15:23:20.277Z,0.77
2022-08-07T15:25:55.747Z,0.73
2022-08-07T15:28:34.865Z,1.20
2022-08-07T15:31:12.175Z,0.60
2022-08-07T15:33:43.053Z,1.03
2022-08-07T15:36:12.930Z,0.90
2022-08-07T15:38:59.196Z,0.97
2022-08-07T15:42:45.898Z,0.90
2022-08-07T15:44:24.045Z,0.80
2022-08-07T15:46:58.672Z,0.90
2022-08-07T15:50:05.472Z,0.87
2022-08-07T15:52:30.422Z,1.00
2022-08-07T15:55:02.472Z,0.70
2022-08-07T15:57:39.892Z,0.60
2022-08-07T16:00:31.967Z,0.97
2022-08-07T16:03:21.593Z,0.70
2022-08-07T16:05:58.073Z,0.97
2022-08-07T16:08:37.807Z,0.90
2022-08-07T16:11:26.762Z,0.87
2022-08-07T16:14:03.295Z,1.00
2022-08-07T16:16:56.892Z,1.10
2022-08-07T16:19:41.873Z,0.90
2022-08-07T16:22:55.314Z,1.17
2022-08-07T16:25:54.513Z,0.90
2022-08-07T16:30:07.033Z,1.00
2022-08-07T16:31:51.329Z,0.90
2022-08-07T16:34:23.641Z,0.93
2022-08-07T16:38:02.527Z,0.90
2022-08-07T16:40:28.122Z,1.40
2022-08-07T16:43:01.923Z,0.93
2022-08-07T16:46:40.335Z,1.27
2022-08-07T16:50:27.195Z,0.80
2022-08-07T16:52:06.430Z,1.13
2022-08-07T16:54:55.042Z,1.43
2022-08-07T16:58:02.035Z,1.03
2022-08-07T17:00:29.534Z,1.40
2022-08-07T17:03:17.089Z,1.10
2022-08-07T17:06:20.007Z,1.40
2022-08-07T17:09:09.548Z,1.40
2022-08-07T17:12:03.912Z,1.10
2022-08-07T17:14:27.439Z,0.80
2022-08-07T17:17:00.025Z,1.00
2022-08-07T17:20:02.332Z,1.30
2022-08-07T17:22:28.907Z,0.97
2022-08-07T17:25:10.609Z,1.07
2022-08-07T17:27:50.707Z,1.23
2022-08-07T17:30:26.983Z,1.10
2022-08-07T17:33:04.340Z,1.33
2022-08-07T17:35:58.327Z,1.20
2022-08-07T17:38:34.978Z,1.10
2022-08-07T17:42:01.077Z,1.40
2022-08-07T17:44:05.911Z,1.10
2022-08-07T17:46:40.378Z,1.10
2022-08-07T17:49:12.273Z,1.23
2022-08-07T17:52:00.288Z,1.00
2022-08-07T17:54:52.961Z,0.80
2022-08-07T17:57:56.560Z,1.37
2022-08-07T18:00:33.191Z,1.50
2022-08-07T18:03:09.675Z,1.23
2022-08-07T18:06:01.883Z,1.47
2022-08-07T18:08:34.232Z,1.60
2022-08-07T18:11:53.934Z,1.00
2022-08-07T18:14:03.000Z,1.03
2022-08-07T18:16:34.821Z,0.90
2022-08-07T18:21:06.659Z,0.87
2022-08-07T18:22:11.469Z,1.10
2022-08-07T18:24:50.990Z,0.90
2022-08-07T18:27:38.749Z,0.87
2022-08-07T18:30:32.662Z,1.13
2022-08-07T18:33:27.696Z,1.30
2022-08-07T18:36:05.952Z,1.20
2022-08-07T18:38:59.367Z,1.17
2022-08-07T18:41:45.707Z,1.50
2022-08-07T18:44:24.500Z,1.20
2022-08-07T18:47:00.205Z,1.00
2022-08-07T18:50:19.571Z,1.80
2022-08-07T18:52:37.753Z,1.43
2022-08-07T18:55:40.998Z,0.87
2022-08-07T18:58:23.955Z,1.00
2022-08-07T19:01:05.678Z,1.00
2022-08-07T19:03:43.283Z,1.80
2022-08-07T19:06:16.470Z,3.00
2022-08-07T19:08:58.668Z,1.47
2022-08-07T19:11:35.800Z,1.30
2022-08-07T19:14:11.469Z,1.57
2022-08-07T19:17:06.351Z,1.90
2022-08-07T19:19:37.352Z,1.50
2022-08-07T19:22:11.849Z,1.30
2022-08-07T19:24:48.686Z,1.40
2022-08-07T19:28:29.161Z,1.40
2022-08-07T19:31:05.895Z,1.10
2022-08-07T19:33:10.038Z,1.30
2022-08-07T19:35:44.043Z,1.67
2022-08-07T19:38:16.731Z,1.40
2022-08-07T19:40:49.463Z,1.73
2022-08-07T19:43:43.160Z,1.70
2022-08-07T19:46:10.573Z,1.63
2022-08-07T19:48:42.914Z,1.20
2022-08-07T19:51:19.821Z,1.20
2022-08-07T19:54:30.051Z,1.20
2022-08-07T19:57:56.800Z,1.30
2022-08-07T19:59:39.870Z,1.70
2022-08-07T20:02:18.937Z,1.50
2022-08-07T20:04:49.369Z,1.50
2022-08-07T20:07:23.503Z,1.33
2022-08-07T20:10:37.725Z,1.23
2022-08-07T20:12:46.634Z,1.10
2022-08-07T20:15:22.420Z,1.10
2022-08-07T20:18:01.849Z,2.17
2022-08-07T20:20:32.707Z,1.40
2022-08-07T20:23:23.238Z,1.20
2022-08-07T20:25:54.040Z,1.30
2022-08-07T20:28:29.142Z,1.37
2022-08-07T20:30:58.228Z,1.83
2022-08-07T20:33:37.973Z,2.03
2022-08-07T20:36:08.345Z,1.47
2022-08-07T20:38:59.439Z,1.40
2022-08-07T20:41:37.796Z,1.80
2022-08-07T20:44:10.261Z,1.20
2022-08-07T20:46:44.814Z,1.50
2022-08-07T20:49:59.477Z,1.33
2022-08-07T20:52:09.375Z,1.60
2022-08-07T20:54:45.623Z,1.17
2022-08-07T20:57:23.718Z,1.83
2022-08-07T21:00:06.866Z,1.50
2022-08-07T21:02:57.679Z,1.20
2022-08-07T21:05:54.805Z,1.33
2022-08-07T21:08:20.661Z,1.30
2022-08-07T21:11:10.863Z,1.40
2022-08-07T21:13:57.967Z,1.77
2022-08-07T21:16:34.247Z,1.27
2022-08-07T21:19:09.040Z,1.67
2022-08-07T21:21:49.231Z,1.30
2022-08-07T21:24:31.556Z,1.57
2022-08-07T21:27:06.971Z,1.63
2022-08-07T21:29:53.176Z,1.73
2022-08-07T21:32:43.160Z,1.57
2022-08-07T21:35:14.118Z,1.57
2022-08-07T21:37:58.692Z,1.50
2022-08-07T21:40:35.729Z,1.30
2022-08-07T21:43:07.085Z,1.27
2022-08-07T21:46:10.269Z,1.40
2022-08-07T21:48:41.234Z,1.33
2022-08-07T21:51:20.094Z,1.57
2022-08-07T21:53:54.392Z,1.33
2022-08-07T21:56:40.394Z,1.73
2022-08-07T21:59:23.219Z,1.80
2022-08-07T22:02:07.546Z,2.00
2022-08-07T22:04:40.996Z,1.20
2022-08-07T22:07:35.749Z,2.13
2022-08-07T22:10:14.496Z,1.47
2022-08-07T22:12:46.248Z,1.50
2022-08-07T22:16:44.838Z,1.93
2022-08-07T22:18:08.821Z,1.40
2022-08-07T22:20:41.436Z,1.80
2022-08-07T22:23:14.782Z,1.60
2022-08-07T22:25:45.312Z,1.27
2022-08-07T22:28:31.585Z,1.43
2022-08-07T22:31:06.660Z,1.90
2022-08-07T22:33:51.025Z,1.47
2022-08-07T22:36:31.361Z,1.70
2022-08-07T22:39:04.600Z,1.90
2022-08-07T22:42:04.118Z,1.53
2022-08-07T22:44:26.735Z,2.10
2022-08-07T22:47:08.619Z,1.80
2022-08-07T22:49:54.315Z,1.40
2022-08-07T22:52:39.955Z,1.83
2022-08-07T22:55:30.139Z,1.47
2022-08-07T22:58:29.031Z,1.20
2022-08-07T23:01:06.433Z,1.70
2022-08-07T23:03:58.291Z,1.40
2022-08-07T23:06:39.206Z,1.60
2022-08-07T23:10:04.784Z,1.73
2022-08-07T23:12:32.835Z,1.50
2022-08-07T23:15:09.538Z,1.47
2022-08-07T23:17:50.416Z,1.47
2022-08-07T23:20:40.636Z,1.93
2022-08-07T23:24:05.934Z,1.13
2022-08-07T23:26:26.135Z,1.40
2022-08-07T23:29:43.355Z,1.37
2022-08-07T23:34:19.878Z,1.30
2022-08-07T23:35:12.259Z,1.60
2022-08-07T23:38:01.256Z,1.27
2022-08-07T23:40:36.214Z,1.63
2022-08-07T23:43:18.771Z,1.53
2022-08-07T23:46:03.563Z,1.50
2022-08-07T23:48:47.522Z,1.93
2022-08-07T23:53:00.214Z,1.47
2022-08-07T23:54:19.522Z,1.67
2022-08-07T23:56:59.913Z,1.20
